createdAt,value
2023-06-17T00:01:19.500Z,15.80
2023-06-17T00:03:47.341Z,13.93
2023-06-17T00:06:14.625Z,16.92
2023-06-17T00:08:41.752Z,13.45
2023-06-17T00:11:08.966Z,14.07
2023-06-17T00:13:36.194Z,16.33
2023-06-17T00:16:06.315Z,14.48
2023-06-17T00:18:37.400Z,13.93
2023-06-17T00:21:04.671Z,13.52
2023-06-17T00:23:32.294Z,14.40
2023-06-17T00:25:59.482Z,15.35
2023-06-17T00:28:26.620Z,15.57
2023-06-17T00:30:53.776Z,13.90
2023-06-17T00:33:20.912Z,16.17
2023-06-17T00:35:48.228Z,14.85
2023-06-17T00:38:15.504Z,13.77
2023-06-17T00:40:42.674Z,14.82
2023-06-17T00:43:09.913Z,14.27
2023-06-17T00:45:40.508Z,12.77
2023-06-17T00:48:10.164Z,14.27
2023-06-17T00:50:38.729Z,14.65
2023-06-17T00:53:07.501Z,16.17
2023-06-17T00:55:35.142Z,18.85
2023-06-17T00:58:02.809Z,16.67
2023-06-17T01:00:30.046Z,17.38
2023-06-17T01:02:58.442Z,18.23
2023-06-17T01:05:26.244Z,16.30
2023-06-17T01:07:59.867Z,21.15
2023-06-17T01:10:43.096Z,20.90
2023-06-17T01:13:13.379Z,18.85
2023-06-17T01:15:41.329Z,16.92
2023-06-17T01:18:10.041Z,22.13
2023-06-17T01:20:37.511Z,22.00
2023-06-17T01:23:06.745Z,19.67
2023-06-17T01:25:36.003Z,19.13
2023-06-17T01:28:20.724Z,20.40
2023-06-17T01:30:49.485Z,25.15
2023-06-17T01:33:17.185Z,20.38
2023-06-17T01:35:58.374Z,18.77
2023-06-17T01:38:36.094Z,18.83
2023-06-17T01:41:08.089Z,21.88
2023-06-17T01:43:36.642Z,22.50
2023-06-17T01:46:05.750Z,20.17
2023-06-17T01:48:33.399Z,19.02
2023-06-17T01:51:00.752Z,20.58
2023-06-17T01:53:28.008Z,19.55
2023-06-17T01:55:55.345Z,20.67
2023-06-17T01:58:22.904Z,19.40
2023-06-17T02:00:50.054Z,17.92
2023-06-17T02:03:17.436Z,18.00
2023-06-17T02:05:46.079Z,19.27
2023-06-17T02:08:15.487Z,19.80
2023-06-17T02:10:42.998Z,16.23
2023-06-17T02:13:10.323Z,20.60
2023-06-17T02:15:37.931Z,18.27
2023-06-17T02:18:05.789Z,21.15
2023-06-17T02:20:33.061Z,20.40
2023-06-17T02:23:00.276Z,16.88
2023-06-17T02:25:27.691Z,16.52
2023-06-17T02:27:54.920Z,23.20
2023-06-17T02:30:22.288Z,18.30
2023-06-17T02:32:49.732Z,20.67
2023-06-17T02:35:16.997Z,19.10
2023-06-17T02:37:44.552Z,17.77
2023-06-17T02:40:12.210Z,19.20
2023-06-17T02:42:39.862Z,19.15
2023-06-17T02:45:12.800Z,19.25
2023-06-17T02:47:42.324Z,18.77
2023-06-17T02:50:10.281Z,20.05
2023-06-17T02:52:39.597Z,17.52
2023-06-17T02:55:07.244Z,19.60
2023-06-17T02:57:34.489Z,20.60
2023-06-17T03:00:02.259Z,19.50
2023-06-17T03:02:29.792Z,19.48
2023-06-17T03:04:56.976Z,20.50
2023-06-17T03:07:25.896Z,19.75
2023-06-17T03:09:53.207Z,17.90
2023-06-17T03:12:20.582Z,20.63
2023-06-17T03:14:50.525Z,15.75
2023-06-17T03:17:18.196Z,17.55
2023-06-17T03:19:45.959Z,15.45
2023-06-17T03:22:13.133Z,18.08
2023-06-17T03:24:40.371Z,18.65
2023-06-17T03:27:07.590Z,18.88
2023-06-17T03:29:37.693Z,16.60
2023-06-17T03:32:05.195Z,16.80
2023-06-17T03:34:34.194Z,18.25
2023-06-17T03:37:01.336Z,19.50
2023-06-17T03:39:28.516Z,19.25
2023-06-17T03:41:55.696Z,18.05
2023-06-17T03:44:22.908Z,17.95
2023-06-17T03:46:50.119Z,18.65
2023-06-17T03:49:17.316Z,16.63
2023-06-17T03:51:44.589Z,18.95
2023-06-17T03:54:11.948Z,17.33
2023-06-17T03:56:39.146Z,17.63
2023-06-17T03:59:06.624Z,19.15
2023-06-17T04:01:33.880Z,18.65
2023-06-17T04:04:01.263Z,18.05
2023-06-17T04:06:28.696Z,19.38
2023-06-17T04:08:55.940Z,17.55
2023-06-17T04:11:23.123Z,16.67
2023-06-17T04:13:50.285Z,18.63
2023-06-17T04:16:17.525Z,19.42
2023-06-17T04:18:44.753Z,17.50
2023-06-17T04:21:12.013Z,13.88
2023-06-17T04:23:39.148Z,16.98
2023-06-17T04:26:06.384Z,19.00
2023-06-17T04:28:34.084Z,16.85
2023-06-17T04:31:02.610Z,16.33
2023-06-17T04:33:32.116Z,18.98
2023-06-17T04:35:59.428Z,18.33
2023-06-17T04:38:26.593Z,20.17
2023-06-17T04:40:54.267Z,18.95
2023-06-17T04:43:24.346Z,16.83
2023-06-17T04:45:52.896Z,14.52
2023-06-17T04:48:20.953Z,18.27
2023-06-17T04:50:49.230Z,19.55
2023-06-17T04:53:16.496Z,19.05
2023-06-17T04:55:44.540Z,17.95
2023-06-17T04:58:11.747Z,19.33
2023-06-17T05:00:39.124Z,21.42
2023-06-17T05:03:06.606Z,17.45
2023-06-17T05:05:33.980Z,17.30
2023-06-17T05:08:01.307Z,17.55
2023-06-17T05:10:28.500Z,14.77
2023-06-17T05:12:55.762Z,14.50
2023-06-17T05:15:22.980Z,15.05
2023-06-17T05:17:50.394Z,15.75
2023-06-17T05:20:17.803Z,15.15
2023-06-17T05:22:45.275Z,15.95
2023-06-17T05:25:12.442Z,14.60
2023-06-17T05:27:39.917Z,16.30
2023-06-17T05:30:07.867Z,15.90
2023-06-17T05:32:35.129Z,16.13
2023-06-17T05:35:02.425Z,17.45
2023-06-17T05:37:29.732Z,15.20
2023-06-17T05:39:56.941Z,17.95
2023-06-17T05:42:24.093Z,15.07
2023-06-17T05:44:51.268Z,13.73
2023-06-17T05:47:18.427Z,16.05
2023-06-17T05:49:45.718Z,17.83
2023-06-17T05:52:12.917Z,14.90
2023-06-17T05:54:42.880Z,14.38
2023-06-17T05:57:09.995Z,17.67
2023-06-17T05:59:37.157Z,15.75
2023-06-17T06:02:04.691Z,15.82
2023-06-17T06:04:31.944Z,17.13
2023-06-17T06:06:59.114Z,16.67
2023-06-17T06:09:26.268Z,15.32
2023-06-17T06:11:53.524Z,16.90
2023-06-17T06:14:20.764Z,17.42
2023-06-17T06:16:47.985Z,16.27
2023-06-17T06:19:15.258Z,14.57
2023-06-17T06:21:42.405Z,16.63
2023-06-17T06:24:09.625Z,16.17
2023-06-17T06:26:36.946Z,16.77
2023-06-17T06:29:04.110Z,14.35
2023-06-17T06:31:31.528Z,15.77
2023-06-17T06:33:58.681Z,17.42
2023-06-17T06:36:25.912Z,15.32
2023-06-17T06:38:53.087Z,16.02
2023-06-17T06:41:20.505Z,18.98
2023-06-17T06:43:47.717Z,17.60
2023-06-17T06:46:16.307Z,17.45
2023-06-17T06:48:43.792Z,17.60
2023-06-17T06:51:11.108Z,17.92
2023-06-17T06:53:38.430Z,15.73
2023-06-17T06:56:05.677Z,16.75
2023-06-17T06:58:34.157Z,15.02
2023-06-17T07:01:01.405Z,18.40
2023-06-17T07:03:28.998Z,17.40
2023-06-17T07:05:56.421Z,15.25
2023-06-17T07:08:25.773Z,16.50
2023-06-17T07:10:53.028Z,16.38
2023-06-17T07:13:20.221Z,15.00
2023-06-17T07:15:48.152Z,16.70
2023-06-17T07:18:16.142Z,15.35
2023-06-17T07:20:43.669Z,16.05
2023-06-17T07:23:11.025Z,18.70
2023-06-17T07:25:38.263Z,18.13
2023-06-17T07:28:06.675Z,21.50
2023-06-17T07:30:34.178Z,17.50
2023-06-17T07:33:04.361Z,19.33
2023-06-17T07:35:32.152Z,20.02
2023-06-17T07:37:59.340Z,17.83
2023-06-17T07:40:26.696Z,17.70
2023-06-17T07:42:53.885Z,16.38
2023-06-17T07:45:21.113Z,18.67
2023-06-17T07:47:49.505Z,17.90
2023-06-17T07:50:16.724Z,20.98
2023-06-17T07:52:43.950Z,19.15
2023-06-17T07:55:12.066Z,17.65
2023-06-17T07:57:39.253Z,25.33
2023-06-17T08:00:11.040Z,16.27
2023-06-17T08:02:38.364Z,18.33
2023-06-17T08:05:06.247Z,15.95
2023-06-17T08:07:33.596Z,17.00
2023-06-17T08:15:23.862Z,16.23
2023-06-17T08:17:52.096Z,17.80
2023-06-17T08:20:20.318Z,15.15
2023-06-17T08:22:47.801Z,15.30
2023-06-17T08:25:15.042Z,14.18
2023-06-17T08:27:48.718Z,17.00
2023-06-17T08:30:16.195Z,17.83
2023-06-17T08:32:43.421Z,18.45
2023-06-17T08:35:11.107Z,19.15
2023-06-17T08:37:38.363Z,14.77
2023-06-17T08:40:06.343Z,18.10
2023-06-17T08:42:33.641Z,14.77
2023-06-17T08:45:04.126Z,18.00
2023-06-17T08:47:31.613Z,17.30
2023-06-17T08:49:59.167Z,16.15
2023-06-17T08:52:28.532Z,21.90
2023-06-17T08:54:56.466Z,20.60
2023-06-17T08:57:23.808Z,15.48
2023-06-17T08:59:51.182Z,16.55
2023-06-17T09:02:18.906Z,18.95
2023-06-17T09:04:46.237Z,17.98
2023-06-17T09:07:14.145Z,19.35
2023-06-17T09:09:41.736Z,16.35
2023-06-17T09:12:09.767Z,20.08
2023-06-17T09:14:37.890Z,19.33
2023-06-17T09:17:05.271Z,18.67
2023-06-17T09:19:33.472Z,19.58
2023-06-17T09:22:07.958Z,22.77
2023-06-17T09:24:35.291Z,21.40
2023-06-17T09:27:04.030Z,21.63
2023-06-17T09:29:31.365Z,22.80
2023-06-17T09:31:59.277Z,20.98
2023-06-17T09:34:28.050Z,23.52
2023-06-17T09:37:01.666Z,22.05
2023-06-17T09:39:34.249Z,22.30
2023-06-17T09:42:09.356Z,24.92
2023-06-17T09:44:41.056Z,20.60
2023-06-17T09:47:09.560Z,22.00
2023-06-17T09:49:39.860Z,19.02
2023-06-17T09:52:10.342Z,21.63
2023-06-17T09:54:38.676Z,23.55
2023-06-17T09:57:11.007Z,21.10
2023-06-17T09:59:39.084Z,22.42
2023-06-17T10:02:06.834Z,20.20
2023-06-17T10:04:36.511Z,21.52
2023-06-17T10:07:07.378Z,19.10
2023-06-17T10:09:35.254Z,23.52
2023-06-17T10:12:04.080Z,23.65
2023-06-17T10:14:35.075Z,21.60
2023-06-17T10:17:04.575Z,19.45
2023-06-17T10:19:35.006Z,22.52
2023-06-17T10:22:05.803Z,20.25
2023-06-17T10:24:33.438Z,21.33
2023-06-17T10:27:06.505Z,20.52
2023-06-17T10:29:34.295Z,20.38
2023-06-17T10:32:20.447Z,19.73
2023-06-17T10:35:06.451Z,20.98
2023-06-17T10:37:46.832Z,18.38
2023-06-17T10:40:28.117Z,19.42
2023-06-17T10:43:04.335Z,20.58
2023-06-17T10:45:52.219Z,22.13
2023-06-17T10:48:24.371Z,22.42
2023-06-17T10:50:53.497Z,19.92
2023-06-17T10:53:37.602Z,21.67
2023-06-17T10:56:06.212Z,21.30
2023-06-17T10:58:39.047Z,21.27
2023-06-17T11:01:07.883Z,22.38
2023-06-17T11:03:36.179Z,23.15
2023-06-17T11:06:05.162Z,21.45
2023-06-17T11:08:34.926Z,17.63
2023-06-17T11:11:16.410Z,16.45
2023-06-17T11:13:52.078Z,19.90
2023-06-17T11:16:19.693Z,14.30
2023-06-17T11:18:50.013Z,17.45
2023-06-17T11:21:18.800Z,16.05
2023-06-17T11:23:46.016Z,16.55
2023-06-17T11:26:13.937Z,16.40
2023-06-17T11:28:41.312Z,16.55
2023-06-17T11:31:09.540Z,15.10
2023-06-17T11:33:40.117Z,13.95
2023-06-17T11:36:15.183Z,19.33
2023-06-17T11:38:44.193Z,14.50
2023-06-17T11:41:11.494Z,15.45
2023-06-17T11:43:38.856Z,15.15
2023-06-17T11:46:06.939Z,15.30
2023-06-17T11:48:35.164Z,12.68
2023-06-17T11:51:03.187Z,14.30
2023-06-17T11:53:34.885Z,13.32
2023-06-17T11:56:09.365Z,11.82
2023-06-17T11:58:41.187Z,12.65
2023-06-17T12:01:10.555Z,14.15
2023-06-17T12:03:38.191Z,13.80
2023-06-17T12:06:06.400Z,14.40
2023-06-17T12:08:38.151Z,15.02
2023-06-17T12:11:08.549Z,16.17
2023-06-17T12:13:40.512Z,17.63
2023-06-17T12:16:28.852Z,15.88
2023-06-17T12:18:56.051Z,14.43
2023-06-17T12:21:24.939Z,14.88
2023-06-17T12:23:54.722Z,14.90
2023-06-17T12:26:25.367Z,16.20
2023-06-17T12:28:53.352Z,19.02
2023-06-17T12:31:21.020Z,16.83
2023-06-17T12:33:48.642Z,19.98
2023-06-17T12:36:17.058Z,19.00
2023-06-17T12:38:45.847Z,17.40
2023-06-17T12:41:13.584Z,16.15
2023-06-17T12:43:42.141Z,17.65
2023-06-17T12:46:09.878Z,19.20
2023-06-17T12:48:37.495Z,18.17
2023-06-17T12:51:05.180Z,27.40
2023-06-17T12:53:32.454Z,18.60
2023-06-17T12:55:59.995Z,19.63
2023-06-17T12:58:27.595Z,18.38
2023-06-17T13:00:55.284Z,19.00
2023-06-17T13:03:22.931Z,18.30
2023-06-17T13:05:51.531Z,18.65
2023-06-17T13:08:19.253Z,18.20
2023-06-17T13:10:47.014Z,16.90
2023-06-17T13:13:14.265Z,21.55
2023-06-17T13:15:41.766Z,18.98
2023-06-17T13:18:09.520Z,19.08
2023-06-17T13:20:37.172Z,16.20
2023-06-17T13:23:05.689Z,17.73
2023-06-17T13:25:32.930Z,16.95
2023-06-17T13:28:00.260Z,15.60
2023-06-17T13:30:27.590Z,14.35
2023-06-17T13:32:54.828Z,15.73
2023-06-17T13:35:22.711Z,17.23
2023-06-17T13:37:50.594Z,13.98
2023-06-17T13:40:18.092Z,15.77
2023-06-17T13:42:45.379Z,14.18
2023-06-17T13:45:15.582Z,13.45
2023-06-17T13:47:43.060Z,12.35
2023-06-17T13:50:10.912Z,12.13
2023-06-17T13:52:38.284Z,16.13
2023-06-17T13:55:06.019Z,14.57
2023-06-17T13:57:33.213Z,14.10
2023-06-17T14:00:00.493Z,12.85
2023-06-17T14:02:27.751Z,14.02
2023-06-17T14:04:55.833Z,13.30
2023-06-17T14:07:23.011Z,13.48
2023-06-17T14:09:50.152Z,14.90
2023-06-17T14:12:17.346Z,12.63
2023-06-17T14:14:46.171Z,13.80
2023-06-17T14:17:14.401Z,9.93
2023-06-17T14:19:41.542Z,12.30
2023-06-17T14:22:10.478Z,10.55
2023-06-17T14:24:39.934Z,11.15
2023-06-17T14:27:43.574Z,10.30
2023-06-17T14:30:13.212Z,12.25
2023-06-17T14:32:45.881Z,10.15
2023-06-17T14:35:15.921Z,9.68
2023-06-17T14:37:45.826Z,9.60
2023-06-17T14:40:14.514Z,10.80
2023-06-17T14:42:41.888Z,11.88
2023-06-17T14:45:11.716Z,11.35
2023-06-17T14:47:39.959Z,12.40
2023-06-17T14:50:09.071Z,9.00
2023-06-17T14:52:36.310Z,11.02
2023-06-17T14:55:04.439Z,11.90
2023-06-17T14:57:33.698Z,10.75
2023-06-17T15:00:01.508Z,13.38
2023-06-17T15:02:38.807Z,13.50
2023-06-17T15:05:06.380Z,11.07
2023-06-17T15:07:33.527Z,10.70
2023-06-17T15:10:00.740Z,10.13
2023-06-17T15:12:28.172Z,13.00
2023-06-17T15:14:55.850Z,9.90
2023-06-17T15:17:23.421Z,10.27
2023-06-17T15:19:50.662Z,10.27
2023-06-17T15:22:17.846Z,10.93
2023-06-17T15:24:44.993Z,13.18
2023-06-17T15:27:12.152Z,8.82
2023-06-17T15:29:40.407Z,8.65
2023-06-17T15:32:07.986Z,9.50
2023-06-17T15:34:35.146Z,10.52
2023-06-17T15:37:02.275Z,11.18
2023-06-17T15:39:29.670Z,10.40
2023-06-17T15:41:56.918Z,7.95
2023-06-17T15:44:24.240Z,9.93
2023-06-17T15:46:52.029Z,10.30
2023-06-17T15:49:19.288Z,10.05
2023-06-17T15:51:46.449Z,8.50
2023-06-17T15:54:13.692Z,9.73
2023-06-17T15:56:40.890Z,10.15
2023-06-17T15:59:08.395Z,9.60
2023-06-17T16:01:35.803Z,9.77
2023-06-17T16:04:24.570Z,10.07
2023-06-17T16:06:54.127Z,9.30
2023-06-17T16:09:21.482Z,11.38
2023-06-17T16:11:48.655Z,8.98
2023-06-17T16:14:15.820Z,10.60
2023-06-17T16:16:42.969Z,10.50
2023-06-17T16:19:10.161Z,12.27
2023-06-17T16:21:37.356Z,8.77
2023-06-17T16:24:04.714Z,10.00
2023-06-17T16:26:32.336Z,9.60
2023-06-17T16:28:59.518Z,10.30
2023-06-17T16:31:26.744Z,10.13
2023-06-17T16:33:55.244Z,11.52
2023-06-17T16:36:22.813Z,12.15
2023-06-17T16:38:50.034Z,10.07
2023-06-17T16:41:17.283Z,10.18
2023-06-17T16:43:44.525Z,11.63
2023-06-17T16:46:11.812Z,13.73
2023-06-17T16:48:39.042Z,10.32
2023-06-17T16:51:07.277Z,11.20
2023-06-17T16:53:34.902Z,11.85
2023-06-17T16:56:02.652Z,11.65
2023-06-17T16:58:30.271Z,10.43
2023-06-17T17:00:57.589Z,10.93
2023-06-17T17:03:25.010Z,13.10
2023-06-17T17:05:52.328Z,12.13
2023-06-17T17:08:19.641Z,12.57
2023-06-17T17:10:46.868Z,14.73
2023-06-17T17:13:14.131Z,12.45
2023-06-17T17:15:41.678Z,14.60
2023-06-17T17:18:09.123Z,13.35
2023-06-17T17:20:36.327Z,12.80
2023-06-17T17:23:04.198Z,15.13
2023-06-17T17:25:31.819Z,15.75
2023-06-17T17:27:59.002Z,14.90
2023-06-17T17:30:26.729Z,14.35
2023-06-17T17:32:55.483Z,18.20
2023-06-17T17:35:23.144Z,18.08
2023-06-17T17:37:50.386Z,14.57
2023-06-17T17:40:17.936Z,15.20
2023-06-17T17:42:45.242Z,16.48
2023-06-17T17:45:12.518Z,18.63
2023-06-17T17:47:39.805Z,15.18
2023-06-17T17:50:07.971Z,15.10
2023-06-17T17:52:35.158Z,18.23
2023-06-17T17:55:03.140Z,20.40
2023-06-17T17:57:30.768Z,16.10
2023-06-17T17:59:58.015Z,17.35
2023-06-17T18:02:26.115Z,21.17
2023-06-17T18:04:53.489Z,17.48
2023-06-17T18:07:20.853Z,18.02
2023-06-17T18:09:48.153Z,17.23
2023-06-17T18:12:15.496Z,18.60
2023-06-17T18:14:42.770Z,18.92
2023-06-17T18:17:10.124Z,18.73
2023-06-17T18:19:37.314Z,16.55
2023-06-17T18:22:04.858Z,16.40
2023-06-17T18:24:32.172Z,18.45
2023-06-17T18:26:59.641Z,17.55
2023-06-17T18:29:26.876Z,18.15
2023-06-17T18:31:54.101Z,19.17
2023-06-17T18:34:21.371Z,16.17
2023-06-17T18:36:48.678Z,15.60
2023-06-17T18:39:16.040Z,17.52
2023-06-17T18:41:43.595Z,16.15
2023-06-17T18:44:14.293Z,17.58
2023-06-17T18:46:42.092Z,22.52
2023-06-17T18:49:11.495Z,16.38
2023-06-17T18:51:38.726Z,18.52
2023-06-17T18:54:06.084Z,19.85
2023-06-17T18:56:33.293Z,16.38
2023-06-17T18:59:00.729Z,16.70
2023-06-17T19:01:29.468Z,17.00
2023-06-17T19:03:57.972Z,16.55
2023-06-17T19:06:25.230Z,19.73
2023-06-17T19:08:52.512Z,14.77
2023-06-17T19:11:20.185Z,16.70
2023-06-17T19:13:47.523Z,16.83
2023-06-17T19:16:16.973Z,15.52
2023-06-17T19:18:44.279Z,18.67
2023-06-17T19:21:11.649Z,17.80
2023-06-17T19:23:38.869Z,16.90
2023-06-17T19:26:06.471Z,19.08
2023-06-17T19:28:34.435Z,13.82
2023-06-17T19:31:01.576Z,17.38
2023-06-17T19:33:29.268Z,18.38
2023-06-17T19:35:56.581Z,17.30
2023-06-17T19:38:23.805Z,18.08
2023-06-17T19:40:50.976Z,17.48
2023-06-17T19:43:23.365Z,18.08
2023-06-17T19:45:53.374Z,17.50
2023-06-17T19:48:20.729Z,15.45
2023-06-17T19:50:47.903Z,14.23
2023-06-17T19:53:15.120Z,14.70
2023-06-17T19:55:42.413Z,16.75
2023-06-17T19:58:09.609Z,16.83
2023-06-17T20:00:38.458Z,15.90
2023-06-17T20:03:06.055Z,18.55
2023-06-17T20:05:33.430Z,19.42
2023-06-17T20:08:00.681Z,16.70
2023-06-17T20:10:27.887Z,14.43
2023-06-17T20:12:59.128Z,18.13
2023-06-17T20:15:27.364Z,16.38
2023-06-17T20:17:54.709Z,15.32
2023-06-17T20:20:22.417Z,15.02
2023-06-17T20:22:51.212Z,17.35
2023-06-17T20:25:18.638Z,17.38
2023-06-17T20:27:45.883Z,16.27
2023-06-17T20:30:13.688Z,16.25
2023-06-17T20:32:42.055Z,16.63
2023-06-17T20:35:09.810Z,15.68
2023-06-17T20:37:37.476Z,19.63
2023-06-17T20:40:05.640Z,15.75
2023-06-17T20:42:32.849Z,16.00
2023-06-17T20:45:00.097Z,16.10
2023-06-17T20:47:28.262Z,18.52
2023-06-17T20:49:55.562Z,16.00
2023-06-17T20:52:23.083Z,15.38
2023-06-17T20:54:50.368Z,15.55
2023-06-17T20:57:17.711Z,15.88
2023-06-17T20:59:45.089Z,17.17
2023-06-17T21:02:13.391Z,16.08
2023-06-17T21:04:40.635Z,15.77
2023-06-17T21:07:07.866Z,18.33
2023-06-17T21:09:35.568Z,18.85
2023-06-17T21:12:03.294Z,16.50
2023-06-17T21:14:33.053Z,15.43
2023-06-17T21:17:00.375Z,16.77
2023-06-17T21:19:27.588Z,18.08
2023-06-17T21:21:54.869Z,18.27
2023-06-17T21:24:22.172Z,15.35
2023-06-17T21:26:49.415Z,17.05
2023-06-17T21:29:16.712Z,17.40
2023-06-17T21:31:43.917Z,19.00
2023-06-17T21:34:11.674Z,17.70
2023-06-17T21:36:39.028Z,15.98
2023-06-17T21:39:06.454Z,16.35
2023-06-17T21:41:34.050Z,16.33
2023-06-17T21:44:01.300Z,16.30
2023-06-17T21:46:31.807Z,17.60
2023-06-17T21:48:59.329Z,16.42
2023-06-17T21:51:26.584Z,18.40
2023-06-17T21:53:53.869Z,17.02
2023-06-17T21:56:21.323Z,14.82
2023-06-17T22:01:20.392Z,17.50
2023-06-17T22:03:47.877Z,16.88
2023-06-17T22:06:15.233Z,15.90
2023-06-17T22:08:44.002Z,17.33
2023-06-17T22:11:12.682Z,16.88
2023-06-17T22:13:40.831Z,17.33
2023-06-17T22:16:08.467Z,16.20
2023-06-17T22:18:35.769Z,18.63
2023-06-17T22:21:03.020Z,17.05
2023-06-17T22:23:30.276Z,16.52
2023-06-17T22:25:57.720Z,18.60
2023-06-17T22:28:25.078Z,17.77
2023-06-17T22:30:52.342Z,18.83
2023-06-17T22:33:19.689Z,15.65
2023-06-17T22:35:46.877Z,17.48
2023-06-17T22:38:17.509Z,16.65
2023-06-17T22:40:44.805Z,19.38
2023-06-17T22:43:13.837Z,17.00
2023-06-17T22:45:41.048Z,17.00
2023-06-17T22:48:08.425Z,19.58
2023-06-17T22:50:35.778Z,16.08
2023-06-17T22:53:03.139Z,16.83
2023-06-17T22:55:30.365Z,17.75
2023-06-17T22:57:57.637Z,17.20
2023-06-17T23:00:25.071Z,17.13
2023-06-17T23:02:52.355Z,17.27
2023-06-17T23:05:19.603Z,18.63
2023-06-17T23:07:47.266Z,17.45
2023-06-17T23:10:14.494Z,15.57
2023-06-17T23:12:41.768Z,18.02
2023-06-17T23:15:09.327Z,17.63
2023-06-17T23:17:36.629Z,18.42
2023-06-17T23:20:04.289Z,16.90
2023-06-17T23:22:34.978Z,17.55
2023-06-17T23:25:07.083Z,17.85
2023-06-17T23:27:35.403Z,19.50
2023-06-17T23:30:02.740Z,19.30
2023-06-17T23:32:30.204Z,19.73
2023-06-17T23:34:57.681Z,20.05
2023-06-17T23:37:25.578Z,16.83
2023-06-17T23:39:52.817Z,18.77
2023-06-17T23:42:20.093Z,19.27
2023-06-17T23:44:48.737Z,19.83
2023-06-17T23:47:19.881Z,20.65
2023-06-17T23:49:47.423Z,20.75
2023-06-17T23:52:14.699Z,18.25
2023-06-17T23:54:42.067Z,17.27
2023-06-17T23:57:09.299Z,20.00
2023-06-17T23:59:37.068Z,18.42
